Time;durP1;ratioP1;P1;durP2;ratioP2;P2;SDS_P1;SDS_P2;PMS_P1;PMS_P2;Temp;Humidity;BMP_temperature;BMP_pressure;BME280_temperature;BME280_humidity;BME280_pressure;Samples;Min_cycle;Max_cycle;Signal;HPM_P1;HPM_P2
2022/11/25 00:00:15;;;;;;;;;;;21.00;64.70;;;;;;6076506;29;19938;-51
2022/11/25 00:03:17;;;;;;;;;;;20.80;65.00;;;;;;6074772;29;19969;-49
2022/11/25 00:06:19;;;;;;;;;;;20.70;64.60;;;;;;6084202;28;19954;-47
2022/11/25 00:09:21;;;;;;;;;;;21.30;64.80;;;;;;6073918;29;19931;-47
2022/11/25 00:12:22;;;;;;;;;;;21.00;64.30;;;;;;6075027;29;19926;-47
2022/11/25 00:15:23;;;;;;;;;;;20.90;64.70;;;;;;6071563;29;20859;-52
2022/11/25 00:18:25;;;;;;;;;;;20.60;64.50;;;;;;6066192;28;20004;-48
2022/11/25 00:21:27;;;;;;;;;;;20.40;64.30;;;;;;6071839;29;19930;-52
2022/11/25 00:24:29;;;;;;;;;;;21.10;64.60;;;;;;6073047;29;20014;-51
2022/11/25 00:27:30;;;;;;;;;;;20.60;64.50;;;;;;6066669;28;20003;-49
2022/11/25 00:30:33;;;;;;;;;;;20.50;64.40;;;;;;6071446;29;19937;-50
2022/11/25 00:33:36;;;;;;;;;;;20.60;64.40;;;;;;6069420;29;19927;-51
2022/11/25 00:36:37;;;;;;;;;;;20.70;64.40;;;;;;6074647;29;19966;-49
2022/11/25 00:39:39;;;;;;;;;;;20.90;63.90;;;;;;6072485;29;19942;-47
2022/11/25 00:45:54;;;;;;;;;;;20.70;64.40;;;;;;6071760;29;19934;-47
2022/11/25 00:48:56;;;;;;;;;;;21.00;64.70;;;;;;6072224;29;19939;-51
2022/11/25 00:51:57;;;;;;;;;;;20.50;64.20;;;;;;6075820;28;19973;-51
2022/11/25 00:54:58;;;;;;;;;;;21.10;64.60;;;;;;6077833;29;20407;-49
2022/11/25 00:58:00;;;;;;;;;;;20.60;64.50;;;;;;6076313;28;19930;-46
2022/11/25 01:01:01;;;;;;;;;;;20.70;64.30;;;;;;6072264;29;19931;-54
2022/11/25 01:04:03;;;;;;;;;;;20.50;64.40;;;;;;6074316;29;19931;-51
2022/11/25 01:07:07;;;;;;;;;;;20.80;64.50;;;;;;6074511;29;19931;-52
2022/11/25 01:10:09;;;;;;;;;;;21.00;64.00;;;;;;6072706;28;20279;-51
2022/11/25 01:13:12;;;;;;;;;;;21.10;64.30;;;;;;6069983;29;19927;-47
2022/11/25 01:16:14;;;;;;;;;;;20.60;64.40;;;;;;6068643;29;21345;-51
2022/11/25 01:19:17;;;;;;;;;;;21.20;64.30;;;;;;6077046;29;19930;-53
2022/11/25 01:22:18;;;;;;;;;;;20.60;64.40;;;;;;6073178;29;20482;-50
2022/11/25 01:25:20;;;;;;;;;;;20.80;64.40;;;;;;6069010;29;19961;-51
2022/11/25 01:28:21;;;;;;;;;;;20.50;64.40;;;;;;6071854;29;19952;-49
2022/11/25 01:31:23;;;;;;;;;;;20.70;64.60;;;;;;6071156;29;19930;-50
2022/11/25 01:34:28;;;;;;;;;;;20.70;64.30;;;;;;6071013;29;19938;-51
2022/11/25 01:37:31;;;;;;;;;;;20.80;64.50;;;;;;6067558;29;19926;-51
2022/11/25 01:40:32;;;;;;;;;;;20.60;63.70;;;;;;6071985;29;19997;-51
2022/11/25 01:43:34;;;;;;;;;;;20.90;64.40;;;;;;6069452;29;19930;-48
2022/11/25 01:46:41;;;;;;;;;;;20.50;64.20;;;;;;6073940;28;19927;-51
2022/11/25 01:49:45;;;;;;;;;;;20.80;64.50;;;;;;6071866;29;20017;-50
2022/11/25 01:52:49;;;;;;;;;;;20.50;64.10;;;;;;6067027;29;20433;-50
2022/11/25 01:55:54;;;;;;;;;;;20.80;64.30;;;;;;6069733;29;19926;-49
2022/11/25 01:58:56;;;;;;;;;;;20.90;64.00;;;;;;6070567;29;20021;-49
2022/11/25 02:01:57;;;;;;;;;;;20.80;64.30;;;;;;6075487;29;20480;-48
2022/11/25 02:05:00;;;;;;;;;;;20.90;64.40;;;;;;6072566;29;19937;-48
2022/11/25 02:08:03;;;;;;;;;;;20.70;64.20;;;;;;6072600;29;19927;-46
2022/11/25 02:11:05;;;;;;;;;;;21.20;64.50;;;;;;6070773;29;20001;-51
2022/11/25 02:14:07;;;;;;;;;;;21.10;64.40;;;;;;6074728;29;20382;-48
2022/11/25 02:17:08;;;;;;;;;;;20.40;64.00;;;;;;6075766;29;19934;-47
2022/11/25 02:20:12;;;;;;;;;;;20.90;64.40;;;;;;6078438;29;19998;-51
2022/11/25 02:23:18;;;;;;;;;;;20.50;64.00;;;;;;6065244;29;19994;-47
2022/11/25 02:26:21;;;;;;;;;;;20.60;64.00;;;;;;6066997;29;20353;-50
2022/11/25 02:29:24;;;;;;;;;;;20.40;64.00;;;;;;6064088;29;19987;-51
2022/11/25 02:32:25;;;;;;;;;;;20.80;64.10;;;;;;6066260;29;20382;-50
2022/11/25 02:35:29;;;;;;;;;;;20.50;64.20;;;;;;6063960;29;20114;-49
2022/11/25 02:38:32;;;;;;;;;;;20.80;63.60;;;;;;6058794;29;20521;-49
2022/11/25 02:41:36;;;;;;;;;;;21.20;64.20;;;;;;6062290;28;19997;-50
2022/11/25 02:44:39;;;;;;;;;;;20.70;63.90;;;;;;6063654;29;20006;-49
2022/11/25 02:47:42;;;;;;;;;;;20.60;64.20;;;;;;6063421;29;20193;-52
2022/11/25 02:50:44;;;;;;;;;;;20.50;64.10;;;;;;6059780;29;20397;-49
2022/11/25 02:53:45;;;;;;;;;;;20.40;64.10;;;;;;6064675;29;19934;-49
2022/11/25 02:56:48;;;;;;;;;;;20.40;63.90;;;;;;6068046;29;19948;-48
2022/11/25 02:59:49;;;;;;;;;;;20.30;63.80;;;;;;6064234;29;19934;-53
2022/11/25 03:02:52;;;;;;;;;;;20.70;64.20;;;;;;6064841;29;20355;-50
2022/11/25 03:05:54;;;;;;;;;;;21.10;64.20;;;;;;6061165;29;20451;-48
2022/11/25 03:08:58;;;;;;;;;;;20.60;64.00;;;;;;6064084;29;20368;-46
2022/11/25 03:15:15;;;;;;;;;;;20.40;63.80;;;;;;6062189;29;20299;-50
2022/11/25 03:18:16;;;;;;;;;;;20.70;63.90;;;;;;6063873;29;20192;-51
2022/11/25 03:21:17;;;;;;;;;;;20.80;64.20;;;;;;6063467;29;20248;-50
2022/11/25 03:24:19;;;;;;;;;;;20.40;63.80;;;;;;6066538;29;20915;-49
2022/11/25 03:27:23;;;;;;;;;;;20.60;64.00;;;;;;6066468;29;19926;-48
2022/11/25 03:30:26;;;;;;;;;;;20.50;63.80;;;;;;6065885;29;19930;-49
2022/11/25 03:33:31;;;;;;;;;;;20.70;64.00;;;;;;6064835;29;20268;-50
2022/11/25 03:36:32;;;;;;;;;;;20.20;63.80;;;;;;6074399;29;20416;-49
2022/11/25 03:39:34;;;;;;;;;;;20.40;63.10;;;;;;6065908;29;20064;-50
2022/11/25 03:42:36;;;;;;;;;;;21.40;64.40;;;;;;6062889;29;20227;-49
2022/11/25 03:45:39;;;;;;;;;;;20.30;63.60;;;;;;6059756;29;20072;-50
2022/11/25 03:48:42;;;;;;;;;;;20.30;63.80;;;;;;6060029;28;19926;-48
2022/11/25 03:51:44;;;;;;;;;;;20.70;64.10;;;;;;6055031;29;20207;-49
2022/11/25 03:54:47;;;;;;;;;;;20.40;63.90;;;;;;6060225;29;19930;-56
2022/11/25 03:57:53;;;;;;;;;;;20.60;63.80;;;;;;6062322;29;19938;-48
2022/11/25 04:00:58;;;;;;;;;;;20.20;63.50;;;;;;6062015;29;19966;-50
2022/11/25 04:04:00;;;;;;;;;;;20.50;63.70;;;;;;6062463;29;19930;-49
2022/11/25 04:07:01;;;;;;;;;;;20.60;63.80;;;;;;6057903;29;19931;-51
2022/11/25 04:10:03;;;;;;;;;;;20.10;63.60;;;;;;6059806;29;19957;-50
2022/11/25 04:13:07;;;;;;;;;;;21.10;63.90;;;;;;6060446;29;20049;-52
2022/11/25 04:16:16;;;;;;;;;;;20.50;63.70;;;;;;6060656;29;20506;-50
2022/11/25 04:19:18;;;;;;;;;;;21.00;63.90;;;;;;6060675;29;20344;-53
2022/11/25 04:22:19;;;;;;;;;;;20.60;63.80;;;;;;6062123;29;20265;-51
2022/11/25 04:25:22;;;;;;;;;;;20.20;63.60;;;;;;6061943;29;20469;-51
2022/11/25 04:28:25;;;;;;;;;;;20.60;57.40;;;;;;6061319;28;20012;-51
2022/11/25 04:31:26;;;;;;;;;;;20.30;57.50;;;;;;6062199;29;20384;-52
2022/11/25 04:34:28;;;;;;;;;;;20.60;58.20;;;;;;6066842;29;20565;-55
2022/11/25 04:37:29;;;;;;;;;;;20.30;57.20;;;;;;6081482;29;19990;-48
2022/11/25 04:40:33;;;;;;;;;;;20.60;57.40;;;;;;6062534;29;20457;-50
2022/11/25 04:43:47;;;;;;;;;;;20.50;57.40;;;;;;6061807;29;19931;-50
2022/11/25 04:46:49;;;;;;;;;;;20.40;57.20;;;;;;6058671;29;19926;-51
2022/11/25 04:49:51;;;;;;;;;;;20.30;57.20;;;;;;6065820;29;20299;-54
2022/11/25 04:52:53;;;;;;;;;;;20.70;57.50;;;;;;6066606;28;19927;-50
2022/11/25 04:55:55;;;;;;;;;;;20.70;57.60;;;;;;6063479;29;20009;-52
2022/11/25 05:02:18;;;;;;;;;;;20.70;57.30;;;;;;6069580;29;21207;-52
2022/11/25 05:05:28;;;;;;;;;;;20.70;57.30;;;;;;6078820;29;19997;-50
2022/11/25 05:08:30;;;;;;;;;;;20.50;57.20;;;;;;6064360;29;19958;-51
2022/11/25 05:11:32;;;;;;;;;;;20.40;57.20;;;;;;6063724;29;19995;-53
2022/11/25 05:14:35;;;;;;;;;;;20.50;57.10;;;;;;6060628;29;19957;-54
2022/11/25 05:17:37;;;;;;;;;;;21.00;57.40;;;;;;6058836;29;19938;-53
2022/11/25 05:20:39;;;;;;;;;;;20.10;56.90;;;;;;6074893;29;20025;-51
2022/11/25 05:23:41;;;;;;;;;;;20.80;57.40;;;;;;6062034;29;20479;-52
2022/11/25 05:26:43;;;;;;;;;;;20.90;57.30;;;;;;6060335;28;20144;-51
2022/11/25 05:29:45;;;;;;;;;;;20.70;57.20;;;;;;6061465;29;20411;-52
2022/11/25 05:32:52;;;;;;;;;;;20.20;57.00;;;;;;6053097;28;20096;-54
2022/11/25 05:35:55;;;;;;;;;;;20.30;57.00;;;;;;6074552;29;19970;-49
2022/11/25 05:38:58;;;;;;;;;;;20.20;56.70;;;;;;6077231;29;19950;-50
2022/11/25 05:42:17;;;;;;;;;;;20.60;57.20;;;;;;6079250;29;20541;-53
2022/11/25 05:45:19;;;;;;;;;;;20.70;57.10;;;;;;6078755;29;19993;-53
2022/11/25 05:48:21;;;;;;;;;;;20.70;57.20;;;;;;6078482;29;19975;-48
2022/11/25 05:51:23;;;;;;;;;;;20.70;57.20;;;;;;6078054;29;19927;-53
2022/11/25 05:54:25;;;;;;;;;;;20.80;56.80;;;;;;6077784;29;20735;-54
2022/11/25 05:57:28;;;;;;;;;;;20.20;56.90;;;;;;6068146;29;20203;-52
2022/11/25 06:00:35;;;;;;;;;;;20.50;57.00;;;;;;6079397;29;19958;-50
2022/11/25 06:03:43;;;;;;;;;;;20.20;56.70;;;;;;6072582;29;20254;-52
2022/11/25 06:06:46;;;;;;;;;;;20.60;57.20;;;;;;6056617;28;19988;-51
2022/11/25 06:09:49;;;;;;;;;;;20.60;57.20;;;;;;6067526;29;19931;-52
2022/11/25 06:12:52;;;;;;;;;;;20.50;56.60;;;;;;6078565;29;20516;-54
2022/11/25 06:15:54;;;;;;;;;;;20.80;57.10;;;;;;6071940;28;19927;-51
2022/11/25 06:18:55;;;;;;;;;;;20.30;57.00;;;;;;6063274;29;19926;-56
2022/11/25 06:21:57;;;;;;;;;;;20.20;56.90;;;;;;6075835;29;19927;-51
2022/11/25 06:24:59;;;;;;;;;;;20.80;57.00;;;;;;6078495;29;19936;-52
2022/11/25 06:28:07;;;;;;;;;;;20.60;57.20;;;;;;6075139;29;20949;-53
2022/11/25 06:31:22;;;;;;;;;;;20.50;57.20;;;;;;6071788;28;20482;-50
2022/11/25 06:34:32;;;;;;;;;;;20.10;56.70;;;;;;6069256;29;20194;-55
2022/11/25 06:37:36;;;;;;;;;;;20.50;56.80;;;;;;6061287;29;20257;-53
2022/11/25 06:40:37;;;;;;;;;;;20.60;57.10;;;;;;6058302;29;20064;-53
2022/11/25 06:43:39;;;;;;;;;;;20.10;56.50;;;;;;6056474;29;20088;-51
2022/11/25 06:46:40;;;;;;;;;;;20.30;56.80;;;;;;6054743;29;20096;-53
2022/11/25 06:49:42;;;;;;;;;;;20.50;56.90;;;;;;6069088;28;20677;-51
2022/11/25 06:52:43;;;;;;;;;;;20.60;57.00;;;;;;6054738;29;19970;-52
2022/11/25 06:55:44;;;;;;;;;;;20.70;57.00;;;;;;6056867;29;20497;-51
2022/11/25 06:58:46;;;;;;;;;;;20.50;56.90;;;;;;6055268;29;19965;-52
2022/11/25 07:01:48;;;;;;;;;;;20.90;57.00;;;;;;6063097;29;19934;-52
2022/11/25 07:04:50;;;;;;;;;;;20.50;56.90;;;;;;6047011;29;19931;-48
2022/11/25 07:07:51;;;;;;;;;;;20.60;56.90;;;;;;6050925;29;21605;-54
2022/11/25 07:10:53;;;;;;;;;;;20.70;57.10;;;;;;6052162;29;19969;-54
2022/11/25 07:13:55;;;;;;;;;;;20.60;56.80;;;;;;6068175;28;20022;-53
2022/11/25 07:16:57;;;;;;;;;;;20.80;56.90;;;;;;6051669;29;19934;-50
2022/11/25 07:19:59;;;;;;;;;;;20.30;57.20;;;;;;6048914;29;19985;-52
2022/11/25 07:23:00;;;;;;;;;;;20.70;56.80;;;;;;6048827;28;19930;-50
2022/11/25 07:26:02;;;;;;;;;;;20.30;56.30;;;;;;6045114;29;19948;-49
2022/11/25 07:29:05;;;;;;;;;;;21.00;56.70;;;;;;6042427;29;20067;-48
2022/11/25 07:32:25;;;;;;;;;;;20.60;56.50;;;;;;6033840;29;20706;-52
2022/11/25 07:35:26;;;;;;;;;;;20.60;56.60;;;;;;6026020;29;20935;-52
2022/11/25 07:38:27;;;;;;;;;;;20.60;56.30;;;;;;6017052;29;20014;-51
2022/11/25 07:41:30;;;;;;;;;;;20.80;56.50;;;;;;6021913;29;19938;-54
2022/11/25 07:44:32;;;;;;;;;;;20.60;56.30;;;;;;6003792;29;20014;-58
2022/11/25 07:47:43;;;;;;;;;;;20.70;55.60;;;;;;5996538;29;19958;-49
2022/11/25 07:50:45;;;;;;;;;;;20.70;56.40;;;;;;5998192;29;20501;-49
2022/11/25 07:53:47;;;;;;;;;;;20.90;56.50;;;;;;6000053;29;20030;-49
2022/11/25 07:56:49;;;;;;;;;;;20.70;56.00;;;;;;5982751;29;19931;-48
2022/11/25 07:59:51;;;;;;;;;;;20.80;56.30;;;;;;5960323;29;19989;-52
2022/11/25 08:02:53;;;;;;;;;;;20.30;56.00;;;;;;5961219;29;20060;-53
2022/11/25 08:05:58;;;;;;;;;;;20.70;56.40;;;;;;5954324;29;20021;-51
2022/11/25 08:09:00;;;;;;;;;;;20.50;56.20;;;;;;5941666;29;19993;-51
2022/11/25 08:12:01;;;;;;;;;;;20.80;56.40;;;;;;5914014;29;20034;-47
2022/11/25 08:15:03;;;;;;;;;;;20.30;56.30;;;;;;5955131;29;19942;-50
2022/11/25 08:18:05;;;;;;;;;;;20.50;56.20;;;;;;5950929;29;19938;-51
2022/11/25 08:21:08;;;;;;;;;;;20.70;56.30;;;;;;5936049;29;19994;-54
2022/11/25 08:24:12;;;;;;;;;;;20.80;56.30;;;;;;5957681;28;19934;-54
2022/11/25 08:27:13;;;;;;;;;;;20.70;56.30;;;;;;5913868;29;20789;-54
2022/11/25 08:30:15;;;;;;;;;;;20.90;56.00;;;;;;5946372;29;20018;-53
2022/11/25 08:33:17;;;;;;;;;;;20.60;56.00;;;;;;5910554;29;19930;-49
2022/11/25 08:36:20;;;;;;;;;;;20.30;55.80;;;;;;5849508;29;19949;-49
2022/11/25 08:39:21;;;;;;;;;;;20.70;55.90;;;;;;5938022;28;20361;-49
2022/11/25 08:42:43;;;;;;;;;;;20.80;56.20;;;;;;5925638;29;19941;-50
2022/11/25 08:45:44;;;;;;;;;;;20.50;55.80;;;;;;5881265;29;19941;-54
2022/11/25 08:48:46;;;;;;;;;;;20.90;55.50;;;;;;5925270;28;23385;-53
2022/11/25 08:51:47;;;;;;;;;;;20.30;55.80;;;;;;5927390;29;19941;-47
2022/11/25 08:54:49;;;;;;;;;;;20.50;55.80;;;;;;5921260;29;22299;-52
2022/11/25 08:57:50;;;;;;;;;;;20.40;55.70;;;;;;5888954;29;19937;-52
2022/11/25 09:00:52;;;;;;;;;;;20.90;55.90;;;;;;5927324;29;19977;-49
2022/11/25 09:03:55;;;;;;;;;;;20.50;55.60;;;;;;5923151;29;19967;-59
2022/11/25 09:06:56;;;;;;;;;;;20.90;55.80;;;;;;5903454;29;19935;-50
2022/11/25 09:09:58;;;;;;;;;;;20.90;55.90;;;;;;5922830;28;21766;-49
2022/11/25 09:12:59;;;;;;;;;;;21.00;55.90;;;;;;5923638;29;20025;-48
2022/11/25 09:16:01;;;;;;;;;;;20.90;55.70;;;;;;5894488;29;20038;-50
2022/11/25 09:19:05;;;;;;;;;;;20.90;56.00;;;;;;5896147;29;19966;-52
2022/11/25 09:22:06;;;;;;;;;;;20.80;55.70;;;;;;5920121;29;20675;-52
2022/11/25 09:25:08;;;;;;;;;;;20.90;55.70;;;;;;5913583;29;19930;-53
2022/11/25 09:28:09;;;;;;;;;;;21.00;55.80;;;;;;5912869;28;21561;-51
2022/11/25 09:31:11;;;;;;;;;;;21.00;55.70;;;;;;5902750;29;19979;-47
2022/11/25 09:34:13;;;;;;;;;;;20.90;55.40;;;;;;5902369;29;19947;-53
2022/11/25 09:37:14;;;;;;;;;;;21.30;55.70;;;;;;5912338;29;20005;-51
2022/11/25 09:40:17;;;;;;;;;;;20.70;55.20;;;;;;5914945;29;19930;-49
2022/11/25 09:46:53;;;;;;;;;;;21.10;55.70;;;;;;5882372;29;20025;-49
2022/11/25 09:50:00;;;;;;;;;;;20.70;55.40;;;;;;5932051;29;20501;-49
2022/11/25 09:53:10;;;;;;;;;;;20.90;55.10;;;;;;5911177;29;19938;-49
2022/11/25 09:56:18;;;;;;;;;;;21.20;55.40;;;;;;5906894;29;19930;-50
2022/11/25 09:59:21;;;;;;;;;;;21.10;56.00;;;;;;5903620;29;19942;-47
2022/11/25 10:02:25;;;;;;;;;;;21.10;55.20;;;;;;5835585;29;20553;-49
2022/11/25 10:05:30;;;;;;;;;;;21.10;55.40;;;;;;5891926;29;23409;-54
2022/11/25 10:08:34;;;;;;;;;;;21.10;55.40;;;;;;5900561;29;19942;-48
2022/11/25 10:11:43;;;;;;;;;;;20.50;55.10;;;;;;5891866;29;19970;-49
2022/11/25 10:14:46;;;;;;;;;;;21.30;55.30;;;;;;5881702;29;19930;-49
2022/11/25 10:17:50;;;;;;;;;;;20.80;55.10;;;;;;5868288;29;19958;-50
2022/11/25 10:20:53;;;;;;;;;;;21.30;55.30;;;;;;5358670;29;19989;-51
2022/11/25 10:23:54;;;;;;;;;;;21.20;55.10;;;;;;5902052;29;19976;-49
2022/11/25 10:26:58;;;;;;;;;;;21.00;54.90;;;;;;5855445;28;19965;-48
2022/11/25 10:30:01;;;;;;;;;;;21.50;55.40;;;;;;5902082;29;20533;-53
2022/11/25 10:33:06;;;;;;;;;;;21.40;55.40;;;;;;5881418;29;20061;-54
2022/11/25 10:36:13;;;;;;;;;;;21.30;55.60;;;;;;5877081;29;19935;-51
2022/11/25 10:39:19;;;;;;;;;;;21.30;54.80;;;;;;5877444;29;19982;-51
2022/11/25 10:42:21;;;;;;;;;;;21.60;55.30;;;;;;5892526;29;22392;-51
2022/11/25 10:45:26;;;;;;;;;;;21.40;55.30;;;;;;5872671;29;19986;-47
2022/11/25 10:48:37;;;;;;;;;;;21.20;55.20;;;;;;5891086;29;23573;-53
2022/11/25 10:51:46;;;;;;;;;;;21.50;55.20;;;;;;5866158;29;19931;-50
2022/11/25 10:54:54;;;;;;;;;;;21.30;55.00;;;;;;5868971;29;21746;-52
2022/11/25 10:57:56;;;;;;;;;;;21.30;55.10;;;;;;5857485;29;19930;-58
2022/11/25 11:01:02;;;;;;;;;;;21.40;55.40;;;;;;5894120;29;22018;-50
2022/11/25 11:04:05;;;;;;;;;;;21.20;55.20;;;;;;5903632;29;19931;-50
2022/11/25 11:07:08;;;;;;;;;;;21.40;55.10;;;;;;5883567;29;19938;-52
2022/11/25 11:10:14;;;;;;;;;;;21.60;55.20;;;;;;5919834;29;19930;-49
2022/11/25 11:13:19;;;;;;;;;;;21.10;54.90;;;;;;5929341;29;19938;-51
2022/11/25 11:16:24;;;;;;;;;;;21.50;55.40;;;;;;5870967;29;19930;-48
2022/11/25 11:19:27;;;;;;;;;;;21.70;55.40;;;;;;5943734;29;19930;-52
2022/11/25 11:22:29;;;;;;;;;;;21.40;55.10;;;;;;5932585;29;19931;-52
2022/11/25 11:25:32;;;;;;;;;;;21.40;55.00;;;;;;5913760;28;19935;-50
2022/11/25 11:28:37;;;;;;;;;;;21.50;55.10;;;;;;5868782;29;20444;-48
2022/11/25 11:31:43;;;;;;;;;;;21.60;55.10;;;;;;5881047;29;20308;-47
2022/11/25 11:34:51;;;;;;;;;;;21.30;55.00;;;;;;5944099;28;19942;-55
2022/11/25 11:37:56;;;;;;;;;;;21.50;55.20;;;;;;5892114;29;19931;-47
2022/11/25 11:41:04;;;;;;;;;;;22.10;55.50;;;;;;5959883;29;20644;-51
2022/11/25 11:44:08;;;;;;;;;;;21.70;55.30;;;;;;5972656;29;20053;-53
2022/11/25 11:47:15;;;;;;;;;;;21.70;55.10;;;;;;5949405;29;20730;-51
2022/11/25 11:50:22;;;;;;;;;;;21.50;55.20;;;;;;5959653;29;20135;-50
2022/11/25 11:53:29;;;;;;;;;;;21.40;55.60;;;;;;5975845;29;19931;-48
2022/11/25 11:56:34;;;;;;;;;;;21.80;55.10;;;;;;5957835;29;20087;-50
2022/11/25 11:59:45;;;;;;;;;;;21.50;55.10;;;;;;5978920;29;20419;-50
2022/11/25 12:02:54;;;;;;;;;;;21.30;55.00;;;;;;5939601;29;20108;-48
2022/11/25 12:05:56;;;;;;;;;;;21.70;55.10;;;;;;5946952;28;19938;-48
2022/11/25 12:09:00;;;;;;;;;;;21.40;54.80;;;;;;5976134;29;20073;-50
2022/11/25 12:12:03;;;;;;;;;;;21.30;55.10;;;;;;5994499;29;20440;-48
2022/11/25 12:15:08;;;;;;;;;;;21.50;54.90;;;;;;5968798;29;20392;-51
2022/11/25 12:18:15;;;;;;;;;;;21.50;54.90;;;;;;5973254;29;19982;-47
2022/11/25 12:21:23;;;;;;;;;;;21.10;54.80;;;;;;5990100;29;19979;-47
2022/11/25 12:24:29;;;;;;;;;;;21.70;55.10;;;;;;5968434;29;19973;-48
2022/11/25 12:27:33;;;;;;;;;;;21.60;55.10;;;;;;5968234;29;19930;-48
2022/11/25 12:30:37;;;;;;;;;;;21.70;54.90;;;;;;5990995;29;19937;-49
2022/11/25 12:33:42;;;;;;;;;;;21.60;54.90;;;;;;6010523;29;19938;-47
2022/11/25 12:36:45;;;;;;;;;;;21.70;55.20;;;;;;5971117;29;20732;-49
2022/11/25 12:39:52;;;;;;;;;;;21.60;55.10;;;;;;5984337;29;19969;-57
2022/11/25 12:42:55;;;;;;;;;;;21.70;55.00;;;;;;5976708;29;20035;-48
2022/11/25 12:46:02;;;;;;;;;;;21.50;55.00;;;;;;5930647;29;19937;-48
2022/11/25 12:49:06;;;;;;;;;;;21.70;55.00;;;;;;5944936;29;19996;-53
2022/11/25 12:52:15;;;;;;;;;;;21.60;54.90;;;;;;5386090;29;19931;-47
2022/11/25 12:55:22;;;;;;;;;;;21.70;54.80;;;;;;5557932;29;22410;-47
2022/11/25 12:58:32;;;;;;;;;;;21.40;54.70;;;;;;5753338;29;19931;-49
2022/11/25 13:01:41;;;;;;;;;;;21.70;54.80;;;;;;5913652;29;19935;-47
2022/11/25 13:04:54;;;;;;;;;;;21.60;54.90;;;;;;5504142;29;19931;-50
2022/11/25 13:07:59;;;;;;;;;;;21.40;55.00;;;;;;5907354;29;19931;-49
2022/11/25 13:11:15;;;;;;;;;;;21.40;54.60;;;;;;5900047;29;20519;-49
2022/11/25 13:14:23;;;;;;;;;;;21.90;54.70;;;;;;5930767;29;19969;-51
2022/11/25 13:17:25;;;;;;;;;;;21.80;54.70;;;;;;5927200;29;20039;-51
2022/11/25 13:20:41;;;;;;;;;;;21.60;54.40;;;;;;5932830;29;20025;-49
2022/11/25 13:23:45;;;;;;;;;;;21.80;54.60;;;;;;5929255;29;20683;-54
2022/11/25 13:26:51;;;;;;;;;;;21.60;53.70;;;;;;5692189;29;19934;-51
2022/11/25 13:29:53;;;;;;;;;;;21.70;54.60;;;;;;5679580;29;19998;-53
2022/11/25 13:32:54;;;;;;;;;;;21.90;54.70;;;;;;5368294;29;20068;-48
2022/11/25 13:35:55;;;;;;;;;;;21.40;54.60;;;;;;5856258;29;20319;-49
2022/11/25 13:38:59;;;;;;;;;;;22.20;55.00;;;;;;5735102;29;19931;-49
2022/11/25 13:42:04;;;;;;;;;;;21.70;54.50;;;;;;5920903;29;20144;-53
2022/11/25 13:45:23;;;;;;;;;;;21.60;53.90;;;;;;5916193;29;20021;-50
2022/11/25 13:48:26;;;;;;;;;;;21.90;54.60;;;;;;5929616;29;19930;-51
2022/11/25 13:51:28;;;;;;;;;;;21.80;55.10;;;;;;5916837;29;20001;-50
2022/11/25 13:54:33;;;;;;;;;;;21.70;54.40;;;;;;5934740;29;20517;-53
2022/11/25 13:57:38;;;;;;;;;;;21.90;54.40;;;;;;5938766;29;19965;-50
2022/11/25 14:00:46;;;;;;;;;;;21.70;54.30;;;;;;5926416;29;19930;-48
2022/11/25 14:03:50;;;;;;;;;;;21.10;54.00;;;;;;5575415;28;19960;-49
2022/11/25 14:07:03;;;;;;;;;;;21.90;54.60;;;;;;5735577;29;22136;-53
2022/11/25 14:10:12;;;;;;;;;;;21.90;54.50;;;;;;5720474;29;20912;-51
2022/11/25 14:13:22;;;;;;;;;;;22.20;54.60;;;;;;5523093;29;22150;-49
2022/11/25 14:16:36;;;;;;;;;;;22.00;54.40;;;;;;5913783;28;21708;-48
2022/11/25 14:19:45;;;;;;;;;;;21.40;54.10;;;;;;5926198;29;19980;-48
2022/11/25 14:23:04;;;;;;;;;;;21.90;54.20;;;;;;5927383;29;20616;-49
2022/11/25 14:26:08;;;;;;;;;;;21.90;54.30;;;;;;5918929;29;19958;-48
2022/11/25 14:29:34;;;;;;;;;;;22.00;54.20;;;;;;5908717;29;20306;-51
2022/11/25 14:32:39;;;;;;;;;;;21.80;54.20;;;;;;5901497;29;20029;-48
2022/11/25 14:35:43;;;;;;;;;;;21.60;54.20;;;;;;5902168;29;20586;-47
2022/11/25 14:38:49;;;;;;;;;;;21.90;54.30;;;;;;5896095;28;19935;-49
2022/11/25 14:41:54;;;;;;;;;;;22.00;54.30;;;;;;5911474;29;20707;-51
2022/11/25 14:44:57;;;;;;;;;;;21.80;54.20;;;;;;5912305;29;19931;-51
2022/11/25 14:48:11;;;;;;;;;;;22.10;54.20;;;;;;5900969;29;20308;-49
2022/11/25 14:51:12;;;;;;;;;;;22.00;54.50;;;;;;5933830;28;19942;-49
2022/11/25 14:54:14;;;;;;;;;;;21.80;54.00;;;;;;5897689;29;20050;-48
2022/11/25 14:57:18;;;;;;;;;;;21.80;54.00;;;;;;5911955;29;19997;-51
2022/11/25 15:00:21;;;;;;;;;;;22.10;54.30;;;;;;5920396;29;20778;-49
2022/11/25 15:03:22;;;;;;;;;;;21.60;54.50;;;;;;5893620;29;20983;-47
2022/11/25 15:06:27;;;;;;;;;;;22.10;54.30;;;;;;5921189;29;19934;-48
2022/11/25 15:09:29;;;;;;;;;;;22.00;54.20;;;;;;5894606;29;19931;-52
2022/11/25 15:12:32;;;;;;;;;;;22.10;54.20;;;;;;5920283;29;20349;-53
2022/11/25 15:15:35;;;;;;;;;;;22.30;54.30;;;;;;5905615;29;19930;-52
2022/11/25 15:18:36;;;;;;;;;;;21.50;53.90;;;;;;5909733;29;20316;-48
2022/11/25 15:21:38;;;;;;;;;;;21.80;54.00;;;;;;5893500;29;19935;-47
2022/11/25 15:25:06;;;;;;;;;;;22.10;54.20;;;;;;5905258;29;19938;-50
2022/11/25 15:28:14;;;;;;;;;;;22.10;54.10;;;;;;5898522;29;19993;-49
2022/11/25 15:31:18;;;;;;;;;;;22.20;54.00;;;;;;5910791;29;19934;-51
2022/11/25 15:34:20;;;;;;;;;;;22.00;53.90;;;;;;5908712;29;19931;-47
2022/11/25 15:37:22;;;;;;;;;;;22.00;53.90;;;;;;5930610;29;19930;-48
2022/11/25 15:40:35;;;;;;;;;;;22.00;54.20;;;;;;5935469;29;20729;-49
2022/11/25 15:43:38;;;;;;;;;;;22.20;54.10;;;;;;5925271;29;21110;-49
2022/11/25 15:46:49;;;;;;;;;;;22.00;54.10;;;;;;5912995;28;19970;-49
2022/11/25 15:49:55;;;;;;;;;;;22.20;53.80;;;;;;5942587;29;20109;-47
2022/11/25 15:52:59;;;;;;;;;;;21.80;54.00;;;;;;5907720;29;19930;-47
2022/11/25 15:56:03;;;;;;;;;;;21.80;53.90;;;;;;5940954;28;19931;-49
2022/11/25 15:59:04;;;;;;;;;;;22.00;54.00;;;;;;5928135;29;19934;-49
2022/11/25 16:02:20;;;;;;;;;;;21.80;54.10;;;;;;5901252;29;19938;-46
2022/11/25 16:05:25;;;;;;;;;;;22.10;54.20;;;;;;5898184;29;20281;-47
2022/11/25 16:08:35;;;;;;;;;;;22.00;53.90;;;;;;5956380;29;20666;-50
2022/11/25 16:11:43;;;;;;;;;;;22.00;54.00;;;;;;5924888;29;20291;-48
2022/11/25 16:14:45;;;;;;;;;;;22.10;54.10;;;;;;5940952;29;19930;-46
2022/11/25 16:17:46;;;;;;;;;;;22.10;53.90;;;;;;5922164;29;21288;-49
2022/11/25 16:20:49;;;;;;;;;;;22.10;54.00;;;;;;5930904;29;20449;-49
2022/11/25 16:23:51;;;;;;;;;;;21.90;53.90;;;;;;5924008;29;20635;-52
2022/11/25 16:26:54;;;;;;;;;;;22.20;54.10;;;;;;5920265;29;20231;-50
2022/11/25 16:29:56;;;;;;;;;;;21.80;53.90;;;;;;5959194;29;19938;-50
2022/11/25 16:32:58;;;;;;;;;;;22.20;54.10;;;;;;5954803;29;20446;-50
2022/11/25 16:35:59;;;;;;;;;;;22.10;53.60;;;;;;5948276;29;20267;-49
2022/11/25 16:39:06;;;;;;;;;;;21.70;53.90;;;;;;5957340;29;19966;-49
2022/11/25 16:42:15;;;;;;;;;;;22.10;54.00;;;;;;5949841;29;19934;-50
2022/11/25 16:45:18;;;;;;;;;;;22.80;54.30;;;;;;5936829;29;19957;-48
2022/11/25 16:48:20;;;;;;;;;;;21.90;54.00;;;;;;5954397;28;19931;-47
2022/11/25 16:51:23;;;;;;;;;;;22.30;54.10;;;;;;5891001;29;20940;-49
2022/11/25 16:54:24;;;;;;;;;;;21.90;53.90;;;;;;5975685;29;20015;-48
2022/11/25 16:57:26;;;;;;;;;;;21.70;54.00;;;;;;5979198;29;20072;-48
2022/11/25 17:00:27;;;;;;;;;;;21.70;54.00;;;;;;5983272;29;20049;-48
2022/11/25 17:03:29;;;;;;;;;;;21.50;53.90;;;;;;5994583;29;19966;-49
2022/11/25 17:06:31;;;;;;;;;;;21.70;54.00;;;;;;5986516;29;20855;-50
2022/11/25 17:09:32;;;;;;;;;;;22.10;54.10;;;;;;5995510;29;20878;-49
2022/11/25 17:12:34;;;;;;;;;;;21.90;54.10;;;;;;6005391;29;19938;-47
2022/11/25 17:15:37;;;;;;;;;;;22.10;54.30;;;;;;6005850;29;19930;-47
2022/11/25 17:18:38;;;;;;;;;;;22.00;54.30;;;;;;6014518;29;20010;-50
2022/11/25 17:21:40;;;;;;;;;;;21.50;54.30;;;;;;6006005;29;20396;-49
2022/11/25 17:24:42;;;;;;;;;;;21.70;54.30;;;;;;6008180;29;20282;-50
2022/11/25 17:27:44;;;;;;;;;;;21.90;54.40;;;;;;6017905;29;21164;-49
2022/11/25 17:30:47;;;;;;;;;;;22.10;54.50;;;;;;6012468;29;20342;-47
2022/11/25 17:33:48;;;;;;;;;;;22.30;54.60;;;;;;6014862;29;20390;-47
2022/11/25 17:36:51;;;;;;;;;;;21.70;54.30;;;;;;6012063;29;19977;-47
2022/11/25 17:39:52;;;;;;;;;;;21.80;54.40;;;;;;6023914;28;20099;-49
2022/11/25 17:42:54;;;;;;;;;;;21.60;54.20;;;;;;6029714;29;19931;-49
2022/11/25 17:45:55;;;;;;;;;;;21.90;54.50;;;;;;6014962;29;20086;-47
2022/11/25 17:48:57;;;;;;;;;;;21.70;54.40;;;;;;6034248;29;20344;-49
2022/11/25 17:51:59;;;;;;;;;;;21.90;54.60;;;;;;6032080;29;20855;-47
2022/11/25 17:55:00;;;;;;;;;;;21.30;54.30;;;;;;6028413;29;20509;-47
2022/11/25 17:58:02;;;;;;;;;;;21.90;54.70;;;;;;6032878;29;20516;-48
2022/11/25 18:01:03;;;;;;;;;;;21.70;54.40;;;;;;6035801;29;19937;-47